sensor_id;sensor_type;location;lat;lon;timestamp;temperature;humidity
6375;DHT22;35400;45.472;-122.822;2024-01-07T00:00:08;6.20;99.90
6375;DHT22;35400;45.472;-122.822;2024-01-07T00:02:35;6.10;99.90
6375;DHT22;35400;45.472;-122.822;2024-01-07T00:05:03;6.10;99.90
6375;DHT22;35400;45.472;-122.822;2024-01-07T00:07:30;6.10;99.90
6375;DHT22;35400;45.472;-122.822;2024-01-07T00:09:56;6.10;99.90
6375;DHT22;35400;45.472;-122.822;2024-01-07T00:12:23;6.10;99.90
6375;DHT22;35400;45.472;-122.822;2024-01-07T00:14:51;6.10;99.90
6375;DHT22;35400;45.472;-122.822;2024-01-07T00:17:18;6.10;99.90
6375;DHT22;35400;45.472;-122.822;2024-01-07T00:19:45;6.10;99.90
6375;DHT22;35400;45.472;-122.822;2024-01-07T00:22:12;6.10;99.90
6375;DHT22;35400;45.472;-122.822;2024-01-07T00:24:38;6.00;99.90
6375;DHT22;35400;45.472;-122.822;2024-01-07T00:27:05;6.10;99.90
6375;DHT22;35400;45.472;-122.822;2024-01-07T00:29:35;6.10;99.90
6375;DHT22;35400;45.472;-122.822;2024-01-07T00:32:03;6.20;99.90
6375;DHT22;35400;45.472;-122.822;2024-01-07T00:34:30;6.10;99.90
6375;DHT22;35400;45.472;-122.822;2024-01-07T00:36:57;6.00;99.90
6375;DHT22;35400;45.472;-122.822;2024-01-07T00:39:24;5.90;99.90
6375;DHT22;35400;45.472;-122.822;2024-01-07T00:41:51;5.90;99.90
6375;DHT22;35400;45.472;-122.822;2024-01-07T00:44:18;5.80;99.90
6375;DHT22;35400;45.472;-122.822;2024-01-07T00:46:45;5.80;99.90
6375;DHT22;35400;45.472;-122.822;2024-01-07T00:49:12;5.70;99.90
6375;DHT22;35400;45.472;-122.822;2024-01-07T00:51:39;5.70;99.90
6375;DHT22;35400;45.472;-122.822;2024-01-07T00:54:06;5.60;99.90
6375;DHT22;35400;45.472;-122.822;2024-01-07T00:56:32;5.60;99.90
6375;DHT22;35400;45.472;-122.822;2024-01-07T00:59:00;5.60;99.90
6375;DHT22;35400;45.472;-122.822;2024-01-07T01:01:28;5.50;99.90
6375;DHT22;35400;45.472;-122.822;2024-01-07T01:03:54;5.50;99.90
6375;DHT22;35400;45.472;-122.822;2024-01-07T01:06:21;5.50;99.90
6375;DHT22;35400;45.472;-122.822;2024-01-07T01:08:48;5.40;99.90
6375;DHT22;35400;45.472;-122.822;2024-01-07T01:11:16;5.40;99.90
6375;DHT22;35400;45.472;-122.822;2024-01-07T01:13:43;5.30;99.90
6375;DHT22;35400;45.472;-122.822;2024-01-07T01:16:10;5.30;99.90
6375;DHT22;35400;45.472;-122.822;2024-01-07T01:18:36;5.20;99.90
6375;DHT22;35400;45.472;-122.822;2024-01-07T01:21:04;5.20;99.90
6375;DHT22;35400;45.472;-122.822;2024-01-07T01:23:31;5.10;99.90
6375;DHT22;35400;45.472;-122.822;2024-01-07T01:25:58;5.10;99.90
6375;DHT22;35400;45.472;-122.822;2024-01-07T01:28:25;5.00;99.90
6375;DHT22;35400;45.472;-122.822;2024-01-07T01:30:52;5.00;99.90
6375;DHT22;35400;45.472;-122.822;2024-01-07T01:33:19;5.00;99.90
6375;DHT22;35400;45.472;-122.822;2024-01-07T01:35:46;4.90;99.90
6375;DHT22;35400;45.472;-122.822;2024-01-07T01:38:13;4.90;99.90
6375;DHT22;35400;45.472;-122.822;2024-01-07T01:40:40;4.90;99.90
6375;DHT22;35400;45.472;-122.822;2024-01-07T01:43:07;4.90;99.90
6375;DHT22;35400;45.472;-122.822;2024-01-07T01:45:34;4.90;99.90
6375;DHT22;35400;45.472;-122.822;2024-01-07T01:48:01;4.80;99.90
6375;DHT22;35400;45.472;-122.822;2024-01-07T01:50:28;4.80;99.90
6375;DHT22;35400;45.472;-122.822;2024-01-07T01:52:56;4.80;99.90
6375;DHT22;35400;45.472;-122.822;2024-01-07T01:55:23;4.80;99.90
6375;DHT22;35400;45.472;-122.822;2024-01-07T01:57:50;4.90;99.90
6375;DHT22;35400;45.472;-122.822;2024-01-07T02:00:18;4.90;99.90
6375;DHT22;35400;45.472;-122.822;2024-01-07T02:02:45;4.90;99.90
6375;DHT22;35400;45.472;-122.822;2024-01-07T02:05:12;4.90;99.90
6375;DHT22;35400;45.472;-122.822;2024-01-07T02:07:40;4.80;99.90
6375;DHT22;35400;45.472;-122.822;2024-01-07T02:10:07;4.80;99.90
6375;DHT22;35400;45.472;-122.822;2024-01-07T02:12:35;4.80;99.90
6375;DHT22;35400;45.472;-122.822;2024-01-07T02:15:02;4.80;99.90
6375;DHT22;35400;45.472;-122.822;2024-01-07T02:17:28;4.80;99.90
6375;DHT22;35400;45.472;-122.822;2024-01-07T02:19:55;4.70;99.90
6375;DHT22;35400;45.472;-122.822;2024-01-07T02:22:22;4.70;99.90
6375;DHT22;35400;45.472;-122.822;2024-01-07T02:24:49;4.70;99.90
6375;DHT22;35400;45.472;-122.822;2024-01-07T02:27:16;4.60;99.90
6375;DHT22;35400;45.472;-122.822;2024-01-07T02:29:43;4.60;99.90
6375;DHT22;35400;45.472;-122.822;2024-01-07T02:32:10;4.60;99.90
6375;DHT22;35400;45.472;-122.822;2024-01-07T02:34:37;4.60;99.90
6375;DHT22;35400;45.472;-122.822;2024-01-07T02:37:03;4.60;99.90
6375;DHT22;35400;45.472;-122.822;2024-01-07T02:39:30;4.60;99.90
6375;DHT22;35400;45.472;-122.822;2024-01-07T02:41:57;4.50;99.90
6375;DHT22;35400;45.472;-122.822;2024-01-07T02:44:24;4.60;99.90
6375;DHT22;35400;45.472;-122.822;2024-01-07T02:46:51;4.60;99.90
6375;DHT22;35400;45.472;-122.822;2024-01-07T02:49:18;4.60;99.90
6375;DHT22;35400;45.472;-122.822;2024-01-07T02:51:45;4.60;99.90
6375;DHT22;35400;45.472;-122.822;2024-01-07T02:54:16;4.70;99.90
6375;DHT22;35400;45.472;-122.822;2024-01-07T02:56:43;4.70;99.90
6375;DHT22;35400;45.472;-122.822;2024-01-07T02:59:10;4.60;99.90
6375;DHT22;35400;45.472;-122.822;2024-01-07T03:01:36;4.60;99.90
6375;DHT22;35400;45.472;-122.822;2024-01-07T03:04:07;4.60;99.90
6375;DHT22;35400;45.472;-122.822;2024-01-07T03:06:34;4.60;99.90
6375;DHT22;35400;45.472;-122.822;2024-01-07T03:09:01;4.60;99.90
6375;DHT22;35400;45.472;-122.822;2024-01-07T03:11:29;4.60;99.90
6375;DHT22;35400;45.472;-122.822;2024-01-07T03:13:56;4.60;99.90
6375;DHT22;35400;45.472;-122.822;2024-01-07T03:16:24;4.60;99.90
6375;DHT22;35400;45.472;-122.822;2024-01-07T03:18:51;4.60;99.90
6375;DHT22;35400;45.472;-122.822;2024-01-07T03:21:19;4.60;99.90
6375;DHT22;35400;45.472;-122.822;2024-01-07T03:23:47;4.60;99.90
6375;DHT22;35400;45.472;-122.822;2024-01-07T03:26:15;4.60;99.90
6375;DHT22;35400;45.472;-122.822;2024-01-07T03:28:43;4.70;99.90
6375;DHT22;35400;45.472;-122.822;2024-01-07T03:31:14;4.70;99.90
6375;DHT22;35400;45.472;-122.822;2024-01-07T03:33:42;4.70;99.90
6375;DHT22;35400;45.472;-122.822;2024-01-07T03:36:11;4.70;99.90
6375;DHT22;35400;45.472;-122.822;2024-01-07T03:38:39;4.70;99.90
6375;DHT22;35400;45.472;-122.822;2024-01-07T03:41:06;4.60;99.90
6375;DHT22;35400;45.472;-122.822;2024-01-07T03:43:34;4.60;99.90
6375;DHT22;35400;45.472;-122.822;2024-01-07T03:46:01;4.60;99.90
6375;DHT22;35400;45.472;-122.822;2024-01-07T03:48:28;4.70;99.90
6375;DHT22;35400;45.472;-122.822;2024-01-07T03:50:54;4.60;99.90
6375;DHT22;35400;45.472;-122.822;2024-01-07T03:53:21;4.60;99.90
6375;DHT22;35400;45.472;-122.822;2024-01-07T03:55:48;4.60;99.90
6375;DHT22;35400;45.472;-122.822;2024-01-07T03:58:15;4.60;99.90
6375;DHT22;35400;45.472;-122.822;2024-01-07T04:00:42;4.60;99.90
6375;DHT22;35400;45.472;-122.822;2024-01-07T04:03:09;4.60;99.90
6375;DHT22;35400;45.472;-122.822;2024-01-07T04:05:36;4.60;99.90
6375;DHT22;35400;45.472;-122.822;2024-01-07T04:08:04;4.60;99.90
6375;DHT22;35400;45.472;-122.822;2024-01-07T04:10:31;4.60;99.90
6375;DHT22;35400;45.472;-122.822;2024-01-07T04:12:58;4.60;99.90
6375;DHT22;35400;45.472;-122.822;2024-01-07T04:15:25;4.60;99.90
6375;DHT22;35400;45.472;-122.822;2024-01-07T04:17:52;4.60;99.90
6375;DHT22;35400;45.472;-122.822;2024-01-07T04:20:18;4.60;99.90
6375;DHT22;35400;45.472;-122.822;2024-01-07T04:22:45;4.60;99.90
6375;DHT22;35400;45.472;-122.822;2024-01-07T04:25:12;4.50;99.90
6375;DHT22;35400;45.472;-122.822;2024-01-07T04:27:39;4.50;99.90
6375;DHT22;35400;45.472;-122.822;2024-01-07T04:30:06;4.50;99.90
6375;DHT22;35400;45.472;-122.822;2024-01-07T04:32:33;4.50;99.90
6375;DHT22;35400;45.472;-122.822;2024-01-07T04:35:00;4.50;99.90
6375;DHT22;35400;45.472;-122.822;2024-01-07T04:37:27;4.50;99.90
6375;DHT22;35400;45.472;-122.822;2024-01-07T04:39:54;4.50;99.90
6375;DHT22;35400;45.472;-122.822;2024-01-07T04:42:21;4.50;99.90
6375;DHT22;35400;45.472;-122.822;2024-01-07T04:44:48;4.50;99.90
6375;DHT22;35400;45.472;-122.822;2024-01-07T04:47:44;4.50;99.90
6375;DHT22;35400;45.472;-122.822;2024-01-07T04:50:11;4.50;99.90
6375;DHT22;35400;45.472;-122.822;2024-01-07T04:52:40;4.40;99.90
6375;DHT22;35400;45.472;-122.822;2024-01-07T04:55:07;4.40;99.90
6375;DHT22;35400;45.472;-122.822;2024-01-07T04:57:35;4.40;99.90
6375;DHT22;35400;45.472;-122.822;2024-01-07T05:00:03;4.40;99.90
6375;DHT22;35400;45.472;-122.822;2024-01-07T05:02:30;4.40;99.90
6375;DHT22;35400;45.472;-122.822;2024-01-07T05:04:57;4.40;99.90
6375;DHT22;35400;45.472;-122.822;2024-01-07T05:07:24;4.40;99.90
6375;DHT22;35400;45.472;-122.822;2024-01-07T05:09:51;4.40;99.90
6375;DHT22;35400;45.472;-122.822;2024-01-07T05:12:17;4.30;99.90
6375;DHT22;35400;45.472;-122.822;2024-01-07T05:14:44;4.30;99.90
6375;DHT22;35400;45.472;-122.822;2024-01-07T05:17:12;4.30;99.90
6375;DHT22;35400;45.472;-122.822;2024-01-07T05:19:42;4.30;99.90
6375;DHT22;35400;45.472;-122.822;2024-01-07T05:22:09;4.30;99.90
6375;DHT22;35400;45.472;-122.822;2024-01-07T05:24:39;4.30;99.90
6375;DHT22;35400;45.472;-122.822;2024-01-07T05:27:06;4.30;99.90
6375;DHT22;35400;45.472;-122.822;2024-01-07T05:29:33;4.30;99.90
6375;DHT22;35400;45.472;-122.822;2024-01-07T05:32:00;4.30;99.90
6375;DHT22;35400;45.472;-122.822;2024-01-07T05:34:28;4.30;99.90
6375;DHT22;35400;45.472;-122.822;2024-01-07T05:36:55;4.40;99.90
6375;DHT22;35400;45.472;-122.822;2024-01-07T05:39:22;4.40;99.90
6375;DHT22;35400;45.472;-122.822;2024-01-07T05:41:49;4.30;99.90
6375;DHT22;35400;45.472;-122.822;2024-01-07T05:44:16;4.40;99.90
6375;DHT22;35400;45.472;-122.822;2024-01-07T05:46:42;4.40;99.90
6375;DHT22;35400;45.472;-122.822;2024-01-07T05:49:09;4.40;99.90
6375;DHT22;35400;45.472;-122.822;2024-01-07T05:51:40;4.40;99.90
6375;DHT22;35400;45.472;-122.822;2024-01-07T05:54:07;4.40;99.90
6375;DHT22;35400;45.472;-122.822;2024-01-07T05:56:39;4.40;99.90
6375;DHT22;35400;45.472;-122.822;2024-01-07T05:59:09;4.50;99.90
6375;DHT22;35400;45.472;-122.822;2024-01-07T06:01:36;4.50;99.90
6375;DHT22;35400;45.472;-122.822;2024-01-07T06:04:03;4.50;99.90
6375;DHT22;35400;45.472;-122.822;2024-01-07T06:06:29;4.50;99.90
6375;DHT22;35400;45.472;-122.822;2024-01-07T06:08:56;4.50;99.90
6375;DHT22;35400;45.472;-122.822;2024-01-07T06:11:23;4.50;99.90
6375;DHT22;35400;45.472;-122.822;2024-01-07T06:13:50;4.50;99.90
6375;DHT22;35400;45.472;-122.822;2024-01-07T06:16:17;4.60;99.90
6375;DHT22;35400;45.472;-122.822;2024-01-07T06:18:44;4.60;99.90
6375;DHT22;35400;45.472;-122.822;2024-01-07T06:21:10;4.60;99.90
6375;DHT22;35400;45.472;-122.822;2024-01-07T06:23:37;4.70;99.90
6375;DHT22;35400;45.472;-122.822;2024-01-07T06:26:04;4.60;99.90
6375;DHT22;35400;45.472;-122.822;2024-01-07T06:28:32;4.70;99.90
6375;DHT22;35400;45.472;-122.822;2024-01-07T06:31:02;4.70;99.90
6375;DHT22;35400;45.472;-122.822;2024-01-07T06:33:29;4.70;99.90
6375;DHT22;35400;45.472;-122.822;2024-01-07T06:35:58;4.60;99.90
6375;DHT22;35400;45.472;-122.822;2024-01-07T06:38:25;4.60;99.90
6375;DHT22;35400;45.472;-122.822;2024-01-07T06:40:52;4.60;99.90
6375;DHT22;35400;45.472;-122.822;2024-01-07T06:43:20;4.60;99.90
6375;DHT22;35400;45.472;-122.822;2024-01-07T06:45:47;4.60;99.90
6375;DHT22;35400;45.472;-122.822;2024-01-07T06:48:14;4.60;99.90
6375;DHT22;35400;45.472;-122.822;2024-01-07T06:50:41;4.60;99.90
6375;DHT22;35400;45.472;-122.822;2024-01-07T06:53:08;4.60;99.90
6375;DHT22;35400;45.472;-122.822;2024-01-07T06:55:35;4.60;99.90
6375;DHT22;35400;45.472;-122.822;2024-01-07T06:58:02;4.60;99.90
6375;DHT22;35400;45.472;-122.822;2024-01-07T07:00:28;4.60;99.90
6375;DHT22;35400;45.472;-122.822;2024-01-07T07:02:56;4.50;99.90
6375;DHT22;35400;45.472;-122.822;2024-01-07T07:05:23;4.50;99.90
6375;DHT22;35400;45.472;-122.822;2024-01-07T07:07:49;4.50;99.90
6375;DHT22;35400;45.472;-122.822;2024-01-07T07:10:16;4.50;99.90
6375;DHT22;35400;45.472;-122.822;2024-01-07T07:12:43;4.40;99.90
6375;DHT22;35400;45.472;-122.822;2024-01-07T07:15:10;4.40;99.90
6375;DHT22;35400;45.472;-122.822;2024-01-07T07:17:38;4.40;99.90
6375;DHT22;35400;45.472;-122.822;2024-01-07T07:20:06;4.40;99.90
6375;DHT22;35400;45.472;-122.822;2024-01-07T07:22:33;4.40;99.90
6375;DHT22;35400;45.472;-122.822;2024-01-07T07:25:00;4.30;99.90
6375;DHT22;35400;45.472;-122.822;2024-01-07T07:27:27;4.30;99.90
6375;DHT22;35400;45.472;-122.822;2024-01-07T07:29:54;4.30;99.90
6375;DHT22;35400;45.472;-122.822;2024-01-07T07:32:21;4.30;99.90
6375;DHT22;35400;45.472;-122.822;2024-01-07T07:34:48;4.30;99.90
6375;DHT22;35400;45.472;-122.822;2024-01-07T07:37:15;4.30;99.90
6375;DHT22;35400;45.472;-122.822;2024-01-07T07:39:42;4.20;99.90
6375;DHT22;35400;45.472;-122.822;2024-01-07T07:42:09;4.20;99.90
6375;DHT22;35400;45.472;-122.822;2024-01-07T07:44:38;4.20;99.90
6375;DHT22;35400;45.472;-122.822;2024-01-07T07:47:05;4.20;99.90
6375;DHT22;35400;45.472;-122.822;2024-01-07T07:49:34;4.20;99.90
6375;DHT22;35400;45.472;-122.822;2024-01-07T07:52:03;4.20;99.90
6375;DHT22;35400;45.472;-122.822;2024-01-07T07:54:30;4.20;99.90
6375;DHT22;35400;45.472;-122.822;2024-01-07T07:56:57;4.20;99.90
6375;DHT22;35400;45.472;-122.822;2024-01-07T07:59:24;4.20;99.90
6375;DHT22;35400;45.472;-122.822;2024-01-07T08:01:51;4.10;99.90
6375;DHT22;35400;45.472;-122.822;2024-01-07T08:04:18;4.20;99.90
6375;DHT22;35400;45.472;-122.822;2024-01-07T08:06:45;4.20;99.90
6375;DHT22;35400;45.472;-122.822;2024-01-07T08:09:12;4.20;99.90
6375;DHT22;35400;45.472;-122.822;2024-01-07T08:11:38;4.20;99.90
6375;DHT22;35400;45.472;-122.822;2024-01-07T08:14:05;4.10;99.90
6375;DHT22;35400;45.472;-122.822;2024-01-07T08:16:33;4.10;99.90
6375;DHT22;35400;45.472;-122.822;2024-01-07T08:19:00;4.10;99.90
6375;DHT22;35400;45.472;-122.822;2024-01-07T08:21:27;4.10;99.90
6375;DHT22;35400;45.472;-122.822;2024-01-07T08:23:53;4.10;99.90
6375;DHT22;35400;45.472;-122.822;2024-01-07T08:26:21;4.10;99.90
6375;DHT22;35400;45.472;-122.822;2024-01-07T08:28:49;4.20;99.90
6375;DHT22;35400;45.472;-122.822;2024-01-07T08:31:16;4.20;99.90
6375;DHT22;35400;45.472;-122.822;2024-01-07T08:33:43;4.10;99.90
6375;DHT22;35400;45.472;-122.822;2024-01-07T08:36:10;4.10;99.90
6375;DHT22;35400;45.472;-122.822;2024-01-07T08:38:37;4.10;99.90
6375;DHT22;35400;45.472;-122.822;2024-01-07T08:41:04;4.20;99.90
6375;DHT22;35400;45.472;-122.822;2024-01-07T08:43:31;4.20;99.90
6375;DHT22;35400;45.472;-122.822;2024-01-07T08:45:58;4.20;99.90
6375;DHT22;35400;45.472;-122.822;2024-01-07T08:48:24;4.20;99.90
6375;DHT22;35400;45.472;-122.822;2024-01-07T08:50:51;4.20;99.90
6375;DHT22;35400;45.472;-122.822;2024-01-07T08:53:18;4.20;99.90
6375;DHT22;35400;45.472;-122.822;2024-01-07T08:55:46;4.20;99.90
6375;DHT22;35400;45.472;-122.822;2024-01-07T08:58:14;4.20;99.90
6375;DHT22;35400;45.472;-122.822;2024-01-07T09:00:40;4.20;99.90
6375;DHT22;35400;45.472;-122.822;2024-01-07T09:03:08;4.20;99.90
6375;DHT22;35400;45.472;-122.822;2024-01-07T09:05:36;4.20;99.90
6375;DHT22;35400;45.472;-122.822;2024-01-07T09:08:03;4.20;99.90
6375;DHT22;35400;45.472;-122.822;2024-01-07T09:10:30;4.20;99.90
6375;DHT22;35400;45.472;-122.822;2024-01-07T09:12:56;4.20;99.90
6375;DHT22;35400;45.472;-122.822;2024-01-07T09:15:23;4.20;99.90
6375;DHT22;35400;45.472;-122.822;2024-01-07T09:17:50;4.20;99.90
6375;DHT22;35400;45.472;-122.822;2024-01-07T09:20:17;4.20;99.90
6375;DHT22;35400;45.472;-122.822;2024-01-07T09:22:44;4.20;99.90
6375;DHT22;35400;45.472;-122.822;2024-01-07T09:25:11;4.20;99.90
6375;DHT22;35400;45.472;-122.822;2024-01-07T09:27:38;4.20;99.90
6375;DHT22;35400;45.472;-122.822;2024-01-07T09:30:05;4.20;99.90
6375;DHT22;35400;45.472;-122.822;2024-01-07T09:32:32;4.20;99.90
6375;DHT22;35400;45.472;-122.822;2024-01-07T09:34:59;4.20;99.90
6375;DHT22;35400;45.472;-122.822;2024-01-07T09:37:26;4.20;99.90
6375;DHT22;35400;45.472;-122.822;2024-01-07T09:39:52;4.20;99.90
6375;DHT22;35400;45.472;-122.822;2024-01-07T09:42:20;4.20;99.90
6375;DHT22;35400;45.472;-122.822;2024-01-07T09:44:48;4.20;99.90
6375;DHT22;35400;45.472;-122.822;2024-01-07T09:47:16;4.20;99.90
6375;DHT22;35400;45.472;-122.822;2024-01-07T09:49:44;4.20;99.90
6375;DHT22;35400;45.472;-122.822;2024-01-07T09:52:11;4.20;99.90
6375;DHT22;35400;45.472;-122.822;2024-01-07T09:54:40;4.20;99.90
6375;DHT22;35400;45.472;-122.822;2024-01-07T09:57:08;4.20;99.90
6375;DHT22;35400;45.472;-122.822;2024-01-07T09:59:36;4.20;99.90
6375;DHT22;35400;45.472;-122.822;2024-01-07T10:02:03;4.20;99.90
6375;DHT22;35400;45.472;-122.822;2024-01-07T10:04:30;4.20;99.90
6375;DHT22;35400;45.472;-122.822;2024-01-07T10:06:57;4.20;99.90
6375;DHT22;35400;45.472;-122.822;2024-01-07T10:09:29;4.10;99.90
6375;DHT22;35400;45.472;-122.822;2024-01-07T10:11:56;4.10;99.90
6375;DHT22;35400;45.472;-122.822;2024-01-07T10:14:23;4.10;99.90
6375;DHT22;35400;45.472;-122.822;2024-01-07T10:16:53;4.10;99.90
6375;DHT22;35400;45.472;-122.822;2024-01-07T10:19:24;4.10;99.90
6375;DHT22;35400;45.472;-122.822;2024-01-07T10:22:02;4.10;99.90
6375;DHT22;35400;45.472;-122.822;2024-01-07T10:24:47;4.10;99.90
6375;DHT22;35400;45.472;-122.822;2024-01-07T10:27:15;4.10;99.90
6375;DHT22;35400;45.472;-122.822;2024-01-07T10:29:42;4.20;99.90
6375;DHT22;35400;45.472;-122.822;2024-01-07T10:32:10;4.20;99.90
6375;DHT22;35400;45.472;-122.822;2024-01-07T10:34:37;4.20;99.90
6375;DHT22;35400;45.472;-122.822;2024-01-07T10:37:04;4.10;99.90
6375;DHT22;35400;45.472;-122.822;2024-01-07T10:39:31;4.10;99.90
6375;DHT22;35400;45.472;-122.822;2024-01-07T10:42:21;4.10;99.90
6375;DHT22;35400;45.472;-122.822;2024-01-07T10:44:48;4.10;99.90
6375;DHT22;35400;45.472;-122.822;2024-01-07T10:47:16;4.10;99.90
6375;DHT22;35400;45.472;-122.822;2024-01-07T10:49:49;4.10;99.90
6375;DHT22;35400;45.472;-122.822;2024-01-07T10:52:17;4.00;99.90
6375;DHT22;35400;45.472;-122.822;2024-01-07T10:54:44;4.00;99.90
6375;DHT22;35400;45.472;-122.822;2024-01-07T10:57:44;4.00;99.90
6375;DHT22;35400;45.472;-122.822;2024-01-07T11:00:17;4.00;99.90
6375;DHT22;35400;45.472;-122.822;2024-01-07T11:03:06;4.00;99.90
6375;DHT22;35400;45.472;-122.822;2024-01-07T11:08:26;4.00;99.90
6375;DHT22;35400;45.472;-122.822;2024-01-07T11:11:27;4.00;99.90
6375;DHT22;35400;45.472;-122.822;2024-01-07T11:13:52;4.00;99.90
6375;DHT22;35400;45.472;-122.822;2024-01-07T11:16:55;4.00;99.90
6375;DHT22;35400;45.472;-122.822;2024-01-07T11:19:21;4.00;99.90
6375;DHT22;35400;45.472;-122.822;2024-01-07T11:21:48;4.00;99.90
6375;DHT22;35400;45.472;-122.822;2024-01-07T11:24:38;3.90;99.90
6375;DHT22;35400;45.472;-122.822;2024-01-07T11:27:05;3.90;99.90
6375;DHT22;35400;45.472;-122.822;2024-01-07T11:29:35;3.90;99.90
6375;DHT22;35400;45.472;-122.822;2024-01-07T11:32:02;3.90;99.90
6375;DHT22;35400;45.472;-122.822;2024-01-07T11:34:44;3.90;99.90
6375;DHT22;35400;45.472;-122.822;2024-01-07T11:37:14;3.90;99.90
6375;DHT22;35400;45.472;-122.822;2024-01-07T11:39:44;3.90;99.90
6375;DHT22;35400;45.472;-122.822;2024-01-07T11:42:11;3.90;99.90
6375;DHT22;35400;45.472;-122.822;2024-01-07T11:44:49;3.90;99.90
6375;DHT22;35400;45.472;-122.822;2024-01-07T11:47:16;3.90;99.90
6375;DHT22;35400;45.472;-122.822;2024-01-07T11:49:47;3.90;99.90
6375;DHT22;35400;45.472;-122.822;2024-01-07T11:52:15;3.90;99.90
6375;DHT22;35400;45.472;-122.822;2024-01-07T11:54:43;3.90;99.90
6375;DHT22;35400;45.472;-122.822;2024-01-07T11:57:10;3.90;99.90
6375;DHT22;35400;45.472;-122.822;2024-01-07T11:59:37;3.80;99.90
6375;DHT22;35400;45.472;-122.822;2024-01-07T12:02:05;3.80;99.90
6375;DHT22;35400;45.472;-122.822;2024-01-07T12:04:32;3.80;99.90
6375;DHT22;35400;45.472;-122.822;2024-01-07T12:07:00;3.80;99.90
6375;DHT22;35400;45.472;-122.822;2024-01-07T12:09:28;3.80;99.90
6375;DHT22;35400;45.472;-122.822;2024-01-07T12:11:55;3.70;99.90
6375;DHT22;35400;45.472;-122.822;2024-01-07T12:14:22;3.80;99.90
6375;DHT22;35400;45.472;-122.822;2024-01-07T12:16:49;3.70;99.90
6375;DHT22;35400;45.472;-122.822;2024-01-07T12:19:18;3.80;99.90
6375;DHT22;35400;45.472;-122.822;2024-01-07T12:21:46;3.80;99.90
6375;DHT22;35400;45.472;-122.822;2024-01-07T12:24:14;3.80;99.90
6375;DHT22;35400;45.472;-122.822;2024-01-07T12:26:41;3.80;99.90
6375;DHT22;35400;45.472;-122.822;2024-01-07T12:29:07;3.80;99.90
6375;DHT22;35400;45.472;-122.822;2024-01-07T12:31:36;3.80;99.90
6375;DHT22;35400;45.472;-122.822;2024-01-07T12:34:04;3.80;99.90
6375;DHT22;35400;45.472;-122.822;2024-01-07T12:36:33;3.70;99.90
6375;DHT22;35400;45.472;-122.822;2024-01-07T12:39:00;3.70;99.90
6375;DHT22;35400;45.472;-122.822;2024-01-07T12:41:27;3.80;99.90
6375;DHT22;35400;45.472;-122.822;2024-01-07T12:43:55;3.90;99.90
6375;DHT22;35400;45.472;-122.822;2024-01-07T12:46:22;3.80;99.90
6375;DHT22;35400;45.472;-122.822;2024-01-07T12:48:49;3.80;99.90
6375;DHT22;35400;45.472;-122.822;2024-01-07T12:51:16;3.80;99.90
6375;DHT22;35400;45.472;-122.822;2024-01-07T12:53:43;3.80;99.90
6375;DHT22;35400;45.472;-122.822;2024-01-07T12:56:10;3.90;99.90
6375;DHT22;35400;45.472;-122.822;2024-01-07T12:58:37;3.90;99.90
6375;DHT22;35400;45.472;-122.822;2024-01-07T13:01:04;3.90;99.90
6375;DHT22;35400;45.472;-122.822;2024-01-07T13:03:31;3.80;99.90
6375;DHT22;35400;45.472;-122.822;2024-01-07T13:05:58;3.80;99.90
6375;DHT22;35400;45.472;-122.822;2024-01-07T13:08:25;3.80;99.90
6375;DHT22;35400;45.472;-122.822;2024-01-07T13:10:55;3.80;99.90
6375;DHT22;35400;45.472;-122.822;2024-01-07T13:13:22;3.80;99.90
6375;DHT22;35400;45.472;-122.822;2024-01-07T13:15:49;3.80;99.90
6375;DHT22;35400;45.472;-122.822;2024-01-07T13:18:17;3.80;99.90
6375;DHT22;35400;45.472;-122.822;2024-01-07T13:20:44;3.80;99.90
6375;DHT22;35400;45.472;-122.822;2024-01-07T13:23:11;3.80;99.90
6375;DHT22;35400;45.472;-122.822;2024-01-07T13:25:38;3.70;99.90
6375;DHT22;35400;45.472;-122.822;2024-01-07T13:28:05;3.70;99.90
6375;DHT22;35400;45.472;-122.822;2024-01-07T13:30:37;3.70;99.90
6375;DHT22;35400;45.472;-122.822;2024-01-07T13:33:04;3.70;99.90
6375;DHT22;35400;45.472;-122.822;2024-01-07T13:35:31;3.70;99.90
6375;DHT22;35400;45.472;-122.822;2024-01-07T13:37:58;3.60;99.90
6375;DHT22;35400;45.472;-122.822;2024-01-07T13:40:25;3.60;99.90
6375;DHT22;35400;45.472;-122.822;2024-01-07T13:42:52;3.60;99.90
6375;DHT22;35400;45.472;-122.822;2024-01-07T13:45:20;3.60;99.90
6375;DHT22;35400;45.472;-122.822;2024-01-07T13:47:48;3.60;99.90
6375;DHT22;35400;45.472;-122.822;2024-01-07T13:50:15;3.60;99.90
6375;DHT22;35400;45.472;-122.822;2024-01-07T13:52:42;3.60;99.90
6375;DHT22;35400;45.472;-122.822;2024-01-07T13:55:10;3.60;99.90
6375;DHT22;35400;45.472;-122.822;2024-01-07T13:57:36;3.60;99.90
6375;DHT22;35400;45.472;-122.822;2024-01-07T14:00:04;3.60;99.90
6375;DHT22;35400;45.472;-122.822;2024-01-07T14:02:37;3.70;99.90
6375;DHT22;35400;45.472;-122.822;2024-01-07T14:05:07;3.70;99.90
6375;DHT22;35400;45.472;-122.822;2024-01-07T14:07:35;3.70;99.90
6375;DHT22;35400;45.472;-122.822;2024-01-07T14:10:02;3.70;99.90
6375;DHT22;35400;45.472;-122.822;2024-01-07T14:12:30;3.70;99.90
6375;DHT22;35400;45.472;-122.822;2024-01-07T14:14:57;3.70;99.90
6375;DHT22;35400;45.472;-122.822;2024-01-07T14:17:25;3.70;99.90
6375;DHT22;35400;45.472;-122.822;2024-01-07T14:19:52;3.70;99.90
6375;DHT22;35400;45.472;-122.822;2024-01-07T14:22:20;3.70;99.90
6375;DHT22;35400;45.472;-122.822;2024-01-07T14:24:48;3.70;99.90
6375;DHT22;35400;45.472;-122.822;2024-01-07T14:27:15;3.70;99.90
6375;DHT22;35400;45.472;-122.822;2024-01-07T14:29:43;3.60;99.90
6375;DHT22;35400;45.472;-122.822;2024-01-07T14:32:10;3.60;99.90
6375;DHT22;35400;45.472;-122.822;2024-01-07T14:34:41;3.60;99.90
6375;DHT22;35400;45.472;-122.822;2024-01-07T14:37:11;3.60;99.90
6375;DHT22;35400;45.472;-122.822;2024-01-07T14:39:38;3.60;99.90
6375;DHT22;35400;45.472;-122.822;2024-01-07T14:42:05;3.50;99.90
6375;DHT22;35400;45.472;-122.822;2024-01-07T14:44:31;3.60;99.90
6375;DHT22;35400;45.472;-122.822;2024-01-07T14:46:58;3.60;99.90
6375;DHT22;35400;45.472;-122.822;2024-01-07T14:49:25;3.50;99.90
6375;DHT22;35400;45.472;-122.822;2024-01-07T14:51:52;3.50;99.90
6375;DHT22;35400;45.472;-122.822;2024-01-07T14:54:19;3.50;99.90
6375;DHT22;35400;45.472;-122.822;2024-01-07T14:56:46;3.60;99.90
6375;DHT22;35400;45.472;-122.822;2024-01-07T14:59:13;3.50;99.90
6375;DHT22;35400;45.472;-122.822;2024-01-07T15:01:40;3.50;99.90
6375;DHT22;35400;45.472;-122.822;2024-01-07T15:04:10;3.50;99.90
6375;DHT22;35400;45.472;-122.822;2024-01-07T15:06:44;3.50;99.90
6375;DHT22;35400;45.472;-122.822;2024-01-07T15:09:13;3.50;99.90
6375;DHT22;35400;45.472;-122.822;2024-01-07T15:11:42;3.50;99.90
6375;DHT22;35400;45.472;-122.822;2024-01-07T15:14:11;3.50;99.90
6375;DHT22;35400;45.472;-122.822;2024-01-07T15:16:38;3.50;99.90
6375;DHT22;35400;45.472;-122.822;2024-01-07T15:19:05;3.50;99.90
6375;DHT22;35400;45.472;-122.822;2024-01-07T15:21:32;3.50;99.90